Time;durP1;ratioP1;P1;durP2;ratioP2;P2;SDS_P1;SDS_P2;PMS_P1;PMS_P2;Temp;Humidity;BMP_temperature;BMP_pressure;BME280_temperature;BME280_humidity;BME280_pressure;Samples;Min_cycle;Max_cycle;Signal;HPM_P1;HPM_P2
2022/06/20 00:00:21;;;;;;;18.25;16.52;;;24.30;60.20;;;;;;5004943;28;20042;-77
2022/06/20 00:02:49;;;;;;;21.10;19.40;;;24.30;60.00;;;;;;5005884;28;20056;-77
2022/06/20 00:05:18;;;;;;;23.23;21.27;;;24.40;60.00;;;;;;5008276;28;20461;-77
2022/06/20 00:07:44;;;;;;;22.33;20.42;;;24.40;60.00;;;;;;5013235;28;20022;-77
2022/06/20 00:10:11;;;;;;;26.85;24.55;;;24.30;60.10;;;;;;5009127;28;20049;-77
2022/06/20 00:12:37;;;;;;;23.98;21.27;;;24.30;60.00;;;;;;5009178;28;20050;-77
2022/06/20 00:15:04;;;;;;;21.45;19.75;;;24.20;60.10;;;;;;5011397;28;20522;-77
2022/06/20 00:17:30;;;;;;;21.30;19.08;;;24.20;60.60;;;;;;5009258;28;20486;-77
2022/06/20 00:19:56;;;;;;;26.25;24.30;;;24.10;60.60;;;;;;5008922;28;20041;-77
2022/06/20 00:22:22;;;;;;;23.83;22.00;;;24.10;60.60;;;;;;5012207;28;20037;-77
2022/06/20 00:24:48;;;;;;;27.80;25.52;;;24.10;60.80;;;;;;5012288;28;20022;-77
2022/06/20 00:27:14;;;;;;;29.50;27.60;;;24.10;60.70;;;;;;5012135;28;20036;-77
2022/06/20 00:29:41;;;;;;;26.80;24.88;;;24.10;60.70;;;;;;5009006;28;20033;-77
2022/06/20 00:32:08;;;;;;;21.35;19.65;;;24.10;60.80;;;;;;4994189;28;20061;-77
2022/06/20 00:34:34;;;;;;;21.50;19.58;;;24.10;60.80;;;;;;5012099;28;20038;-77
2022/06/20 00:37:00;;;;;;;21.55;19.52;;;24.10;61.10;;;;;;5009173;28;20034;-77
2022/06/20 00:39:26;;;;;;;21.40;19.55;;;24.00;61.40;;;;;;5008847;28;20037;-77
2022/06/20 00:41:52;;;;;;;21.65;19.45;;;24.00;61.40;;;;;;5008940;28;20021;-77
2022/06/20 00:44:31;;;;;;;21.30;19.70;;;23.90;61.60;;;;;;5010503;28;20363;-77
2022/06/20 00:47:01;;;;;;;20.27;18.58;;;23.90;61.60;;;;;;5007652;28;20044;-77
2022/06/20 00:49:37;;;;;;;21.02;19.08;;;23.80;62.00;;;;;;5011451;28;20477;-77
2022/06/20 00:52:13;;;;;;;27.27;25.23;;;23.80;62.00;;;;;;5009374;28;20422;-77
2022/06/20 00:54:58;;;;;;;24.67;22.95;;;23.80;61.90;;;;;;5008643;28;20406;-77
2022/06/20 00:57:35;;;;;;;23.00;21.10;;;23.80;62.00;;;;;;4991544;28;20041;-77
2022/06/20 01:00:06;;;;;;;20.73;19.15;;;23.70;62.20;;;;;;5000967;28;20037;-77
2022/06/20 01:02:35;;;;;;;19.40;17.70;;;23.70;62.30;;;;;;5007700;28;20030;-77
2022/06/20 01:05:03;;;;;;;19.33;17.55;;;23.70;62.40;;;;;;4994639;28;20068;-77
2022/06/20 01:07:46;;;;;;;21.30;19.58;;;23.60;62.50;;;;;;5015342;28;20403;-77
2022/06/20 01:10:12;;;;;;;18.58;16.92;;;23.60;62.80;;;;;;5009663;28;20026;-77
2022/06/20 01:12:58;;;;;;;19.48;17.65;;;23.50;63.20;;;;;;5008273;28;20050;-77
2022/06/20 01:15:26;;;;;;;17.40;15.90;;;23.50;63.00;;;;;;5008038;28;20038;-77
2022/06/20 01:17:52;;;;;;;19.33;17.52;;;23.50;63.20;;;;;;4993912;28;20041;-77
2022/06/20 01:20:30;;;;;;;18.88;16.90;;;23.50;63.50;;;;;;4992557;28;20057;-77
2022/06/20 01:23:32;;;;;;;20.90;19.33;;;23.40;63.40;;;;;;5011558;28;20026;-77
2022/06/20 01:26:13;;;;;;;17.00;15.40;;;23.20;63.80;;;;;;5008973;28;20037;-77
2022/06/20 01:28:40;;;;;;;16.27;14.65;;;23.10;64.60;;;;;;5012721;28;20022;-77
2022/06/20 01:31:07;;;;;;;16.48;14.75;;;23.00;64.50;;;;;;5007675;28;20046;-77
2022/06/20 01:33:33;;;;;;;16.17;14.65;;;23.10;64.80;;;;;;5007517;28;20386;-77
2022/06/20 01:38:45;;;;;;;17.05;14.88;;;23.00;64.70;;;;;;5012438;28;20045;-77
2022/06/20 01:43:58;;;;;;;18.63;16.13;;;22.90;65.50;;;;;;5008869;28;20033;-77
2022/06/20 01:46:29;;;;;;;17.05;15.23;;;22.80;65.70;;;;;;5010360;28;20042;-77
2022/06/20 01:48:55;;;;;;;;;;;22.80;65.80;;;;;;5008019;28;20030;-77
2022/06/20 01:51:33;;;;;;;15.38;13.77;;;22.70;65.80;;;;;;5020436;28;19910;-77
2022/06/20 01:53:59;;;;;;;18.88;14.02;;;22.70;66.00;;;;;;5010407;28;20486;-77
2022/06/20 01:56:26;;;;;;;14.52;13.15;;;22.70;65.90;;;;;;5010662;28;20034;-77
2022/06/20 01:59:05;;;;;;;16.52;14.35;;;22.70;66.10;;;;;;5006917;28;20033;-77
2022/06/20 02:01:33;;;;;;;18.15;14.00;;;22.70;65.80;;;;;;5009610;28;20442;-77
2022/06/20 02:03:59;;;;;;;15.60;13.57;;;22.70;66.00;;;;;;5007309;28;20030;-77
2022/06/20 02:06:25;;;;;;;16.80;14.18;;;22.80;66.30;;;;;;5010081;28;20053;-77
2022/06/20 02:08:53;;;;;;;14.73;13.38;;;22.70;66.50;;;;;;5007471;28;20041;-77
2022/06/20 02:11:26;;;;;;;15.35;13.85;;;22.60;67.10;;;;;;4992267;28;20057;-77
2022/06/20 02:14:00;;;;;;;17.27;13.77;;;22.60;67.10;;;;;;5006854;28;20045;-77
2022/06/20 02:16:26;;;;;;;16.27;13.15;;;22.50;67.60;;;;;;4998324;28;20046;-77
2022/06/20 02:18:53;;;;;;;15.60;14.10;;;22.50;67.50;;;;;;5003296;28;20044;-77
2022/06/20 02:21:22;;;;;;;17.17;15.38;;;22.50;67.10;;;;;;5014592;28;20041;-77
2022/06/20 02:23:51;;;;;;;18.83;14.93;;;22.50;67.50;;;;;;5007623;28;20022;-77
2022/06/20 02:26:20;;;;;;;14.43;13.15;;;22.50;67.60;;;;;;5009041;28;20053;-77
2022/06/20 02:28:47;;;;;;;18.55;13.70;;;22.50;67.60;;;;;;5006372;28;20038;-77
2022/06/20 02:31:13;;;;;;;14.25;12.85;;;22.50;67.60;;;;;;5008242;28;20038;-77
2022/06/20 02:33:40;;;;;;;19.48;13.00;;;22.50;67.30;;;;;;5006109;28;20038;-77
2022/06/20 02:36:06;;;;;;;14.80;13.18;;;22.50;67.20;;;;;;4999761;28;20505;-77
2022/06/20 02:38:33;;;;;;;14.88;13.07;;;22.50;67.50;;;;;;5007058;28;20479;-77
2022/06/20 02:40:59;;;;;;;16.88;13.02;;;22.50;67.60;;;;;;5009749;28;20044;-78
2022/06/20 02:43:29;;;;;;;13.88;12.48;;;22.40;67.70;;;;;;5009024;28;20034;-77
2022/06/20 02:45:56;;;;;;;15.35;12.68;;;22.40;68.00;;;;;;5005985;28;20046;-77
2022/06/20 02:48:23;;;;;;;14.98;12.70;;;22.40;67.90;;;;;;5007016;28;20033;-77
2022/06/20 02:50:53;;;;;;;16.85;12.80;;;22.40;68.70;;;;;;5006734;28;20033;-77
2022/06/20 02:53:27;;;;;;;16.48;13.15;;;22.30;67.70;;;;;;5007340;28;20034;-77
2022/06/20 02:55:53;;;;;;;14.05;12.65;;;22.30;67.80;;;;;;5006511;28;20034;-77
2022/06/20 02:58:25;;;;;;;14.50;12.68;;;22.30;67.60;;;;;;5009092;28;20062;-77
2022/06/20 03:00:55;;;;;;;15.52;13.02;;;22.30;67.50;;;;;;5005831;28;20041;-77
2022/06/20 03:03:35;;;;;;;15.20;13.40;;;22.30;67.70;;;;;;5006601;28;20037;-77
2022/06/20 03:06:02;;;;;;;15.85;13.35;;;22.20;67.90;;;;;;5006484;28;20033;-77
2022/06/20 03:08:30;;;;;;;14.68;12.02;;;22.20;67.60;;;;;;5006612;28;20034;-76
2022/06/20 03:10:57;;;;;;;14.20;12.70;;;22.30;67.60;;;;;;5009522;28;20034;-77
2022/06/20 03:13:23;;;;;;;14.80;12.57;;;22.20;67.50;;;;;;5006772;28;20511;-77
2022/06/20 03:15:50;;;;;;;13.82;12.02;;;22.20;67.40;;;;;;5005589;28;20513;-77
2022/06/20 03:18:18;;;;;;;13.88;12.55;;;22.20;68.00;;;;;;5006534;28;20022;-77
2022/06/20 03:20:44;;;;;;;13.93;12.48;;;22.30;67.30;;;;;;5005991;28;20045;-77
2022/06/20 03:23:23;;;;;;;13.65;12.02;;;22.30;67.20;;;;;;5008048;28;20400;-77
2022/06/20 03:25:50;;;;;;;15.60;12.45;;;22.20;67.20;;;;;;5009910;28;20033;-77
2022/06/20 03:28:20;;;;;;;13.50;12.27;;;22.30;67.00;;;;;;5006023;28;20034;-77
2022/06/20 03:30:46;;;;;;;15.68;12.93;;;22.20;67.10;;;;;;5005674;28;20041;-77
2022/06/20 03:33:14;;;;;;;14.05;12.60;;;22.10;67.50;;;;;;5007666;28;20026;-77
2022/06/20 03:35:47;;;;;;;14.90;12.52;;;22.10;67.80;;;;;;5006140;28;20022;-76
2022/06/20 03:38:13;;;;;;;16.60;12.95;;;22.10;67.80;;;;;;5008789;28;20479;-77
2022/06/20 03:40:40;;;;;;;16.23;12.57;;;22.10;67.30;;;;;;5012343;28;20053;-77
2022/06/20 03:43:06;;;;;;;15.07;12.82;;;22.10;67.30;;;;;;5010011;28;20033;-77
2022/06/20 03:45:34;;;;;;;20.00;13.80;;;22.10;67.60;;;;;;5004605;28;20042;-77
2022/06/20 03:48:03;;;;;;;14.43;12.48;;;22.00;68.00;;;;;;5013113;28;20044;-77
2022/06/20 03:50:38;;;;;;;13.68;12.48;;;22.00;68.10;;;;;;4994107;28;20041;-77
2022/06/20 03:53:35;;;;;;;14.90;12.20;;;22.00;67.90;;;;;;5012974;28;20033;-77
2022/06/20 03:56:10;;;;;;;16.58;12.75;;;22.00;68.10;;;;;;5004440;28;20498;-77
2022/06/20 03:58:56;;;;;;;13.40;12.00;;;21.90;67.90;;;;;;4997413;28;20049;-77
2022/06/20 04:01:40;;;;;;;16.33;12.25;;;22.00;67.90;;;;;;5013779;28;20050;-77
2022/06/20 04:04:28;;;;;;;13.32;11.93;;;21.90;67.80;;;;;;5010181;28;20041;-77
2022/06/20 04:07:02;;;;;;;16.23;12.00;;;21.90;67.70;;;;;;5009071;28;20049;-77
2022/06/20 04:13:07;;;;;;;14.07;12.30;;;21.90;68.00;;;;;;5012319;28;20430;-77
2022/06/20 04:15:43;;;;;;;15.02;12.50;;;21.90;67.80;;;;;;5009218;28;20333;-77
2022/06/20 04:18:28;;;;;;;13.40;11.82;;;21.90;68.20;;;;;;5010928;28;20351;-77
2022/06/20 04:20:57;;;;;;;13.90;12.52;;;21.80;68.10;;;;;;5005753;28;20041;-77
2022/06/20 04:23:27;;;;;;;14.93;11.63;;;21.80;68.30;;;;;;5012490;28;20026;-77
2022/06/20 04:26:06;;;;;;;13.43;12.02;;;21.90;68.30;;;;;;5009160;28;20042;-77
2022/06/20 04:29:13;;;;;;;15.65;12.82;;;21.90;68.30;;;;;;5000968;28;20042;-77
2022/06/20 04:31:43;;;;;;;14.27;12.32;;;21.90;68.20;;;;;;5011240;28;20061;-77
2022/06/20 04:34:16;;;;;;;16.02;12.13;;;21.90;68.40;;;;;;5012239;28;20025;-77
2022/06/20 04:36:51;;;;;;;15.52;12.50;;;21.90;68.30;;;;;;5009265;28;20026;-77
2022/06/20 04:39:39;;;;;;;13.45;12.10;;;21.90;68.50;;;;;;5009317;28;20026;-76
2022/06/20 04:42:20;;;;;;;13.25;11.68;;;21.80;68.80;;;;;;5011676;28;20131;-76
2022/06/20 04:45:00;;;;;;;14.75;12.30;;;21.70;68.90;;;;;;5009218;28;20030;-77
2022/06/20 04:47:55;;;;;;;14.40;12.27;;;21.70;69.40;;;;;;4995374;28;20037;-77
2022/06/20 04:50:26;;;;;;;16.15;12.13;;;21.70;69.60;;;;;;5009692;28;20289;-77
2022/06/20 04:52:53;;;;;;;14.73;12.18;;;21.60;69.70;;;;;;5007537;28;20034;-77
2022/06/20 04:55:21;;;;;;;17.65;12.30;;;21.60;69.50;;;;;;5011467;28;20509;-77
2022/06/20 04:57:48;;;;;;;16.55;12.90;;;21.70;69.50;;;;;;5009145;28;20037;-77
2022/06/20 05:00:38;;;;;;;16.92;12.63;;;21.70;69.30;;;;;;5008221;28;20037;-77
2022/06/20 05:03:06;;;;;;;18.67;12.18;;;21.70;69.90;;;;;;5005560;28;20057;-77
2022/06/20 05:05:35;;;;;;;15.07;12.80;;;21.60;69.90;;;;;;5009235;28;20029;-77
2022/06/20 05:08:01;;;;;;;19.27;13.45;;;21.60;70.20;;;;;;5012818;28;20033;-77
2022/06/20 05:10:32;;;;;;;17.30;12.52;;;21.60;70.70;;;;;;5009493;28;20030;-77
2022/06/20 05:13:12;;;;;;;15.07;12.50;;;21.60;71.00;;;;;;4991885;28;20057;-77
2022/06/20 05:15:40;;;;;;;17.52;16.13;;;21.70;71.60;;;;;;5001905;28;20038;-77
2022/06/20 05:18:32;;;;;;;17.65;14.18;;;21.80;71.40;;;;;;5001505;28;20034;-78
2022/06/20 05:21:02;;;;;;;17.65;15.80;;;22.00;70.60;;;;;;5000086;28;20038;-77
2022/06/20 05:23:41;;;;;;;21.20;19.13;;;22.10;70.40;;;;;;5011212;28;20035;-77
2022/06/20 05:26:20;;;;;;;24.08;19.10;;;22.20;70.20;;;;;;5009991;28;20029;-77
2022/06/20 05:28:46;;;;;;;20.13;18.15;;;22.30;69.40;;;;;;5011236;28;20463;-77
2022/06/20 05:31:20;;;;;;;20.48;18.45;;;22.30;69.30;;;;;;5008254;28;20050;-78
2022/06/20 05:33:53;;;;;;;20.70;17.83;;;22.20;69.30;;;;;;5008896;28;20498;-78
2022/06/20 05:36:26;;;;;;;20.13;17.13;;;22.20;69.30;;;;;;5009334;28;20398;-77
2022/06/20 05:38:58;;;;;;;20.50;16.95;;;22.20;69.40;;;;;;5008071;28;20037;-78
2022/06/20 05:41:24;;;;;;;19.85;17.95;;;22.30;69.60;;;;;;4994379;28;20030;-77
2022/06/20 05:43:51;;;;;;;23.45;21.08;;;22.30;70.00;;;;;;5011756;28;20037;-78
2022/06/20 05:46:33;;;;;;;23.00;20.80;;;22.40;69.90;;;;;;5007537;28;20037;-77
2022/06/20 05:49:04;;;;;;;23.30;20.40;;;22.50;69.70;;;;;;4990829;28;20049;-77
2022/06/20 05:51:31;;;;;;;21.98;17.80;;;22.60;69.70;;;;;;5000491;28;20364;-77
2022/06/20 05:54:23;;;;;;;22.38;19.20;;;22.60;69.50;;;;;;4993879;28;20405;-78
2022/06/20 05:56:58;;;;;;;22.02;18.80;;;22.80;69.20;;;;;;5011166;28;20022;-77
2022/06/20 05:59:27;;;;;;;21.58;19.48;;;22.80;69.50;;;;;;4993539;28;20040;-77
2022/06/20 06:01:55;;;;;;;23.75;21.48;;;23.00;69.10;;;;;;5007884;28;20038;-78
2022/06/20 06:04:26;;;;;;;22.45;20.35;;;23.00;68.70;;;;;;5009587;28;20026;-78
2022/06/20 06:06:56;;;;;;;23.55;21.20;;;23.10;68.60;;;;;;5010376;28;20030;-78
2022/06/20 06:09:30;;;;;;;23.70;21.30;;;23.30;68.40;;;;;;5006980;28;20036;-77
2022/06/20 06:12:01;;;;;;;22.52;20.60;;;23.50;68.20;;;;;;5007141;28;20041;-77
2022/06/20 06:14:55;;;;;;;23.20;21.08;;;23.60;67.70;;;;;;5008234;28;20045;-78
2022/06/20 06:17:37;;;;;;;24.48;20.80;;;23.60;66.70;;;;;;4984968;28;20041;-77
2022/06/20 06:20:05;;;;;;;23.92;21.38;;;23.40;67.10;;;;;;5010188;28;20049;-77
2022/06/20 06:22:33;;;;;;;23.38;21.08;;;23.00;68.10;;;;;;5010051;28;20034;-78
2022/06/20 06:25:12;;;;;;;24.67;22.40;;;23.10;68.10;;;;;;5007473;28;20490;-77
2022/06/20 06:27:38;;;;;;;22.17;20.30;;;23.20;68.10;;;;;;5009070;28;20030;-77
2022/06/20 06:30:12;;;;;;;22.98;20.63;;;23.30;68.30;;;;;;4992655;28;20034;-77
2022/06/20 06:32:44;;;;;;;22.13;20.23;;;23.30;67.40;;;;;;5008852;28;20491;-77
2022/06/20 06:35:25;;;;;;;22.55;20.50;;;23.40;67.10;;;;;;5009393;28;20022;-77
2022/06/20 06:38:03;;;;;;;22.23;20.30;;;23.20;67.50;;;;;;5007835;28;20042;-77
2022/06/20 06:40:50;;;;;;;23.23;20.90;;;23.40;67.70;;;;;;5022820;28;20027;-77
2022/06/20 06:43:24;;;;;;;22.83;20.92;;;23.60;67.90;;;;;;5024567;28;20038;-77
2022/06/20 06:45:53;;;;;;;25.23;22.73;;;23.70;66.60;;;;;;5006709;28;20042;-77
2022/06/20 06:48:27;;;;;;;23.73;22.02;;;23.80;66.60;;;;;;5008284;28;20061;-77
2022/06/20 06:50:59;;;;;;;23.73;21.55;;;23.90;65.60;;;;;;5007180;28;20025;-78
2022/06/20 06:53:30;;;;;;;24.30;21.65;;;23.80;66.10;;;;;;4992812;28;20037;-77
2022/06/20 06:56:04;;;;;;;23.40;21.17;;;23.80;66.10;;;;;;5009962;28;20045;-77
2022/06/20 06:58:38;;;;;;;23.67;21.50;;;23.90;66.20;;;;;;5010779;28;20026;-78
2022/06/20 07:01:15;;;;;;;25.00;22.40;;;24.10;65.30;;;;;;5006086;28;20034;-77
2022/06/20 07:03:56;;;;;;;24.67;22.27;;;24.00;65.20;;;;;;5007532;28;20045;-77
2022/06/20 07:06:40;;;;;;;24.40;22.40;;;24.10;64.70;;;;;;4991484;28;20069;-77
2022/06/20 07:09:27;;;;;;;25.23;22.77;;;24.00;65.50;;;;;;4991536;28;20038;-77
2022/06/20 07:12:18;;;;;;;24.50;22.00;;;24.10;65.20;;;;;;5009356;28;20029;-77
2022/06/20 07:14:55;;;;;;;25.05;22.90;;;24.10;64.90;;;;;;4994971;28;20053;-78
2022/06/20 07:17:26;;;;;;;25.05;22.48;;;24.10;65.20;;;;;;5009427;28;20498;-77
2022/06/20 07:19:52;;;;;;;25.90;23.23;;;24.20;65.20;;;;;;5006024;28;20026;-77
2022/06/20 07:22:19;;;;;;;25.13;22.77;;;24.20;65.10;;;;;;5008762;28;20042;-77
2022/06/20 07:24:45;;;;;;;25.88;23.23;;;24.10;65.00;;;;;;5009278;28;20033;-77
2022/06/20 07:27:18;;;;;;;25.30;22.70;;;24.10;65.60;;;;;;5007757;28;20044;-77
2022/06/20 07:30:05;;;;;;;26.33;23.98;;;24.10;65.70;;;;;;5008521;28;20026;-77
2022/06/20 07:32:42;;;;;;;25.05;22.52;;;24.10;66.10;;;;;;4993664;28;20514;-77
2022/06/20 07:35:27;;;;;;;25.95;23.13;;;23.90;66.60;;;;;;5008687;28;20029;-77
2022/06/20 07:38:22;;;;;;;24.33;22.17;;;23.50;67.80;;;;;;5007180;28;20041;-77
2022/06/20 07:40:52;;;;;;;25.20;22.88;;;23.40;68.60;;;;;;5009320;28;20061;-77
2022/06/20 07:43:36;;;;;;;25.80;23.07;;;23.30;68.80;;;;;;5006375;28;20038;-77
2022/06/20 07:46:08;;;;;;;25.80;21.48;;;23.30;69.40;;;;;;5008049;28;20030;-77
2022/06/20 07:48:39;;;;;;;25.20;19.90;;;23.10;69.60;;;;;;5007102;28;20049;-77
2022/06/20 07:51:13;;;;;;;23.90;21.60;;;23.00;71.10;;;;;;5006438;28;20505;-77
2022/06/20 07:54:07;;;;;;;23.23;20.90;;;22.80;70.80;;;;;;5006372;28;20034;-77
2022/06/20 07:57:04;;;;;;;21.98;19.85;;;23.00;70.20;;;;;;4975094;28;20042;-77
2022/06/20 07:59:46;;;;;;;22.95;20.63;;;23.30;69.50;;;;;;4914388;29;20035;-77
2022/06/20 08:02:30;;;;;;;23.05;20.67;;;23.30;69.70;;;;;;4929799;28;20063;-77
2022/06/20 08:04:57;;;;;;;24.40;21.88;;;23.40;69.40;;;;;;4930745;29;20058;-77
2022/06/20 08:07:33;;;;;;;24.30;21.73;;;23.40;69.20;;;;;;4930938;29;20024;-77
2022/06/20 08:10:10;;;;;;;28.20;22.20;;;23.40;69.20;;;;;;4922553;29;20035;-77
2022/06/20 08:12:55;;;;;;;26.63;23.88;;;23.40;69.50;;;;;;4930458;29;20040;-77
2022/06/20 08:15:23;;;;;;;24.40;22.10;;;23.50;69.10;;;;;;4930241;28;20028;-77
2022/06/20 08:17:49;;;;;;;26.70;24.40;;;23.70;68.90;;;;;;4917986;29;20039;-77
2022/06/20 08:20:16;;;;;;;28.10;25.40;;;24.10;67.50;;;;;;4923083;29;20038;-77
2022/06/20 08:22:48;;;;;;;26.85;24.25;;;24.30;65.80;;;;;;4950108;28;20051;-77
2022/06/20 08:25:15;;;;;;;28.67;25.95;;;24.40;66.80;;;;;;4933684;28;20039;-78
2022/06/20 08:27:43;;;;;;;28.50;25.77;;;24.70;64.60;;;;;;4935673;29;20142;-78
2022/06/20 08:30:18;;;;;;;27.10;24.40;;;24.60;65.10;;;;;;4952127;28;20392;-78
2022/06/20 08:32:58;;;;;;;27.80;24.83;;;24.60;65.30;;;;;;4952504;29;20400;-78
2022/06/20 08:35:28;;;;;;;25.42;23.13;;;24.50;65.30;;;;;;4954970;28;20035;-78
2022/06/20 08:38:04;;;;;;;27.83;25.00;;;24.50;65.10;;;;;;4989658;28;20387;-78
2022/06/20 08:40:49;;;;;;;30.15;27.15;;;24.60;64.90;;;;;;4993091;28;20467;-78
2022/06/20 08:43:38;;;;;;;29.38;26.73;;;24.80;64.50;;;;;;4992362;28;20047;-78
2022/06/20 08:46:07;;;;;;;27.38;25.00;;;25.10;62.50;;;;;;4997764;28;20498;-78
2022/06/20 08:49:11;;;;;;;26.25;24.10;;;25.10;61.50;;;;;;5008334;28;20045;-77
2022/06/20 08:52:15;;;;;;;27.90;25.48;;;25.00;62.20;;;;;;5012045;28;20045;-77
2022/06/20 08:54:52;;;;;;;27.77;25.17;;;24.90;62.80;;;;;;5012171;28;20041;-77
2022/06/20 08:57:24;;;;;;;28.20;25.75;;;25.20;63.10;;;;;;5011778;28;20033;-77
2022/06/20 09:00:29;;;;;;;26.73;24.17;;;25.30;61.40;;;;;;5008620;28;20033;-78
2022/06/20 09:02:55;;;;;;;28.48;25.65;;;25.20;61.40;;;;;;4931785;29;20079;-78
2022/06/20 09:05:36;;;;;;;26.83;24.58;;;25.20;60.40;;;;;;4917429;29;20441;-78
2022/06/20 09:08:08;;;;;;;;;;;25.30;61.10;;;;;;4930513;29;20035;-78
2022/06/20 09:10:52;;;;;;;25.70;23.50;;;25.10;60.90;;;;;;4933916;29;19914;-78
2022/06/20 09:13:28;;;;;;;26.42;24.30;;;25.10;60.80;;;;;;4922566;28;20040;-78
2022/06/20 09:16:35;;;;;;;36.90;33.97;;;25.30;60.70;;;;;;4921661;29;20501;-78
2022/06/20 09:19:26;;;;;;;27.98;25.73;;;25.70;59.70;;;;;;4926496;29;20040;-78
2022/06/20 09:22:23;;;;;;;28.23;25.88;;;26.10;58.50;;;;;;4922164;29;20051;-78
2022/06/20 09:25:16;;;;;;;26.30;24.23;;;26.30;58.90;;;;;;4913225;29;20047;-78
2022/06/20 09:27:49;;;;;;;28.83;26.05;;;26.50;57.40;;;;;;4922454;29;20117;-78
2022/06/20 09:30:33;;;;;;;25.95;23.95;;;26.40;57.50;;;;;;4917252;29;20035;-78
2022/06/20 09:33:44;;;;;;;26.58;24.10;;;26.20;57.50;;;;;;4935719;28;20482;-78
2022/06/20 09:36:52;;;;;;;25.75;23.67;;;26.00;58.10;;;;;;5007233;28;20064;-78
2022/06/20 09:39:48;;;;;;;25.48;22.85;;;26.00;58.40;;;;;;4970261;28;20125;-78
2022/06/20 09:42:19;;;;;;;25.45;22.95;;;26.00;57.80;;;;;;4972593;28;20471;-78
2022/06/20 09:45:03;;;;;;;24.88;22.67;;;26.00;58.00;;;;;;4971359;28;20046;-78
2022/06/20 09:47:53;;;;;;;26.85;24.38;;;25.90;58.60;;;;;;4955706;28;20030;-78
2022/06/20 09:50:22;;;;;;;26.23;24.02;;;26.20;58.30;;;;;;4971879;28;20680;-78
2022/06/20 09:53:02;;;;;;;27.25;24.85;;;26.40;57.90;;;;;;4990614;28;20066;-78
2022/06/20 09:56:01;;;;;;;28.87;26.67;;;26.70;57.90;;;;;;4990666;28;20506;-78
2022/06/20 09:58:29;;;;;;;26.50;24.65;;;27.00;57.50;;;;;;4973990;28;20554;-78
2022/06/20 10:01:15;;;;;;;29.10;26.88;;;27.40;55.40;;;;;;4986098;28;20482;-78
2022/06/20 10:04:17;;;;;;;31.45;29.25;;;27.40;55.00;;;;;;4973349;28;20558;-78
2022/06/20 10:07:09;;;;;;;29.67;27.38;;;27.40;55.20;;;;;;4980042;28;20094;-79
2022/06/20 10:09:45;;;;;;;27.08;25.30;;;27.30;55.10;;;;;;4984773;28;20042;-78
2022/06/20 10:12:25;;;;;;;24.33;22.50;;;26.90;56.30;;;;;;4971676;28;20026;-79
2022/06/20 10:14:53;;;;;;;24.27;21.98;;;26.80;56.40;;;;;;4970832;28;20045;-78
2022/06/20 10:17:32;;;;;;;24.38;22.20;;;26.70;56.60;;;;;;5010164;28;20037;-78
2022/06/20 10:20:11;;;;;;;25.27;22.85;;;26.40;58.30;;;;;;5010622;28;20018;-78
2022/06/20 10:22:54;;;;;;;26.45;24.05;;;26.10;59.80;;;;;;5011122;28;20042;-77
2022/06/20 10:25:44;;;;;;;25.63;22.88;;;26.00;60.50;;;;;;5011895;28;20026;-78
2022/06/20 10:28:12;;;;;;;30.83;28.17;;;25.80;60.80;;;;;;5010201;28;20037;-78
2022/06/20 10:30:48;;;;;;;28.48;25.88;;;25.70;61.20;;;;;;5006294;28;20038;-78
2022/06/20 10:33:45;;;;;;;31.88;29.05;;;25.70;61.30;;;;;;5007398;28;20030;-78
2022/06/20 10:36:16;;;;;;;31.67;28.95;;;25.90;60.50;;;;;;5009896;28;20360;-78
2022/06/20 10:38:58;;;;;;;29.00;26.50;;;26.10;60.50;;;;;;4990522;28;20041;-78
2022/06/20 10:41:26;;;;;;;29.20;26.38;;;26.30;59.90;;;;;;5009416;28;20038;-78
2022/06/20 10:44:05;;;;;;;27.67;25.15;;;26.10;59.90;;;;;;5010391;28;20033;-78
2022/06/20 10:46:49;;;;;;;34.35;31.58;;;26.30;60.00;;;;;;5010089;28;20034;-78
2022/06/20 10:49:33;;;;;;;31.02;28.20;;;26.50;59.00;;;;;;4992630;28;20515;-78
2022/06/20 10:52:51;;;;;;;27.40;24.83;;;26.50;59.00;;;;;;5009820;28;20038;-77
2022/06/20 10:55:20;;;;;;;26.13;23.80;;;26.10;59.40;;;;;;4986236;28;20050;-78
2022/06/20 10:58:16;;;;;;;25.02;22.60;;;25.90;59.30;;;;;;4985737;28;20057;-79
2022/06/20 11:01:04;;;;;;;23.75;20.27;;;25.90;59.50;;;;;;4969274;28;20038;-78
2022/06/20 11:03:58;;;;;;;23.92;21.88;;;25.70;59.80;;;;;;4969936;28;20058;-78
2022/06/20 11:06:42;;;;;;;24.77;22.67;;;25.60;59.40;;;;;;4984987;28;20046;-78
2022/06/20 11:09:35;;;;;;;23.52;21.52;;;25.50;59.30;;;;;;4971431;28;20495;-78
2022/06/20 11:12:04;;;;;;;24.92;22.65;;;25.50;59.40;;;;;;4954232;28;20049;-77
2022/06/20 11:14:38;;;;;;;26.92;24.38;;;25.80;59.00;;;;;;4969401;28;20046;-78
2022/06/20 11:17:32;;;;;;;27.83;25.35;;;26.10;57.80;;;;;;4971474;28;20046;-78
2022/06/20 11:20:37;;;;;;;30.95;28.52;;;26.50;56.90;;;;;;4974332;28;20407;-78
2022/06/20 11:23:26;;;;;;;40.20;37.58;;;26.60;56.10;;;;;;4967523;28;20046;-78
2022/06/20 11:26:12;;;;;;;28.70;26.65;;;26.60;55.50;;;;;;4973577;28;20035;-78
2022/06/20 11:28:53;;;;;;;32.08;29.85;;;26.80;55.90;;;;;;4987125;28;20034;-77
2022/06/20 11:31:58;;;;;;;32.25;29.70;;;27.00;55.40;;;;;;4999187;28;20038;-79
2022/06/20 11:34:28;;;;;;;31.33;29.30;;;26.90;55.10;;;;;;4987755;28;20054;-78
2022/06/20 11:37:07;;;;;;;31.05;28.35;;;26.80;54.70;;;;;;4969162;28;20113;-78
2022/06/20 11:39:40;;;;;;;36.60;34.20;;;26.90;55.20;;;;;;4970057;28;20133;-78
2022/06/20 11:42:56;;;;;;;30.55;28.08;;;26.90;55.00;;;;;;4952370;28;20034;-79
2022/06/20 11:45:49;;;;;;;39.63;36.80;;;26.80;55.20;;;;;;4947069;28;20054;-78
2022/06/20 11:48:39;;;;;;;37.42;35.20;;;27.20;53.40;;;;;;4893820;29;20272;-78
2022/06/20 11:51:19;;;;;;;30.48;28.25;;;27.10;53.50;;;;;;4894151;28;20048;-78
2022/06/20 11:54:03;;;;;;;33.23;31.03;;;26.90;54.70;;;;;;4877137;29;20052;-78
2022/06/20 11:56:47;;;;;;;29.88;27.85;;;27.20;54.10;;;;;;4890179;29;20427;-78
2022/06/20 11:59:22;;;;;;;37.33;34.85;;;27.20;54.00;;;;;;4893326;29;20045;-78
2022/06/20 12:01:53;;;;;;;36.60;34.10;;;27.30;53.60;;;;;;4899151;29;20040;-79
2022/06/20 12:04:24;;;;;;;60.60;56.80;;;27.40;53.60;;;;;;4882085;29;20061;-78
2022/06/20 12:06:54;;;;;;;36.83;34.45;;;27.40;52.90;;;;;;4897600;29;20040;-78
2022/06/20 12:09:34;;;;;;;36.08;33.30;;;27.60;53.60;;;;;;4882370;29;20052;-78
2022/06/20 12:12:37;;;;;;;34.08;31.75;;;27.70;53.00;;;;;;4912133;29;20040;-78
2022/06/20 12:15:25;;;;;;;35.53;33.28;;;27.90;52.80;;;;;;4916157;28;20369;-77
2022/06/20 12:18:00;;;;;;;36.15;34.03;;;28.00;52.50;;;;;;4900066;29;20477;-78
2022/06/20 12:23:27;;;;;;;37.80;35.30;;;28.30;51.50;;;;;;4956626;28;20054;-78
2022/06/20 12:25:57;;;;;;;34.80;32.38;;;28.10;52.10;;;;;;4996743;28;20586;-78
2022/06/20 12:28:37;;;;;;;39.10;36.70;;;27.80;53.40;;;;;;5011382;28;20037;-78
2022/06/20 12:31:24;;;;;;;34.10;31.97;;;28.00;52.50;;;;;;5009314;28;20034;-78
2022/06/20 12:33:52;;;;;;;36.20;33.78;;;27.90;52.40;;;;;;4992857;28;20046;-78
2022/06/20 12:36:20;;;;;;;36.10;33.70;;;27.90;51.90;;;;;;5009535;28;20038;-78
2022/06/20 12:39:30;;;;;;;44.80;42.03;;;28.00;52.10;;;;;;5009278;28;20031;-78
2022/06/20 12:42:01;;;;;;;34.00;31.90;;;28.00;51.90;;;;;;5012278;28;20029;-78
2022/06/20 12:44:30;;;;;;;35.40;33.00;;;27.90;52.60;;;;;;4996140;28;20042;-78
2022/06/20 12:47:43;;;;;;;33.88;31.70;;;28.00;51.90;;;;;;5009912;28;20030;-78
2022/06/20 12:50:19;;;;;;;51.72;48.63;;;28.10;52.00;;;;;;4998218;28;20040;-78
2022/06/20 12:52:57;;;;;;;34.35;32.25;;;28.10;52.20;;;;;;5012781;28;20037;-78
2022/06/20 12:55:31;;;;;;;36.30;33.47;;;28.00;52.40;;;;;;5010969;28;20038;-78
2022/06/20 12:58:19;;;;;;;42.03;39.13;;;28.20;52.40;;;;;;5009955;28;20029;-78
2022/06/20 13:01:12;;;;;;;34.28;32.13;;;28.20;51.40;;;;;;5008834;28;20037;-78
2022/06/20 13:03:58;;;;;;;37.90;35.58;;;28.00;52.10;;;;;;5008477;28;20058;-79
2022/06/20 13:06:55;;;;;;;34.30;32.22;;;28.10;51.00;;;;;;5009375;28;20049;-78
2022/06/20 13:09:32;;;;;;;48.03;45.10;;;28.20;51.70;;;;;;5011276;28;20033;-78
2022/06/20 13:12:02;;;;;;;37.92;35.63;;;28.20;51.00;;;;;;5011261;28;20025;-78
2022/06/20 13:14:34;;;;;;;39.25;36.53;;;28.00;51.20;;;;;;4996123;28;20054;-78
2022/06/20 13:17:19;;;;;;;37.53;34.92;;;27.90;50.90;;;;;;5011246;28;20041;-78
2022/06/20 13:19:54;;;;;;;33.65;31.55;;;27.90;50.30;;;;;;5012224;28;20021;-78
2022/06/20 13:22:41;;;;;;;37.60;35.22;;;28.10;51.50;;;;;;5011288;28;20034;-78
2022/06/20 13:25:10;;;;;;;41.35;38.65;;;28.30;50.70;;;;;;5009366;28;20033;-78
2022/06/20 13:27:44;;;;;;;38.05;35.63;;;28.50;51.00;;;;;;5007851;28;20514;-78